Hite, UT

1:20 PM MDT on September 02, 2015 (GMT -0600)
Page Municipal | | Change Station
CLOSE
Current Station
Airport
Location: Page,
Elevation: 4308 ft
Nearby Weather Stations

Elev 4308 ft 36.92 °N, 111.45 °W | Updated 27 minutes ago

Clear
Clear
88 °F
Feels Like 88 °F
N
7
Wind Variable Wind from Variable

Today
High -- | Low -- °F
--% Chance of Precip.
Yesterday
High -- | Low -- °F
Precip. -- in
6:53 AM 7:50 PM
Waning Gibbous, 78% visible
Pressure 29.88 in
Visibility 10.0 miles
Clouds Clear
Dew Point 47 °F
Humidity 24%
Rainfall 0.00 in
Snow Depth Not available.
UV 10 out of 12
Pollen 8.60 out of 12
Air Quality Not available.
Flu Activity Not available.
METAR KPGA 021853Z AUTO VRB06KT 10SM CLR 31/08 A3009 RMK AO2 SLP117 T03110083 TSNO
Pressure 29.88 in
Visibility 10.0 miles
Clouds Clear
Dew Point 47 °F
Humidity 24%
Rainfall 0.00 in
Snow Depth Not available.
UV 10 out of 12
Pollen 8.60 out of 12
Air Quality Not available.
Flu Activity Not available.
METAR KPGA 021853Z AUTO VRB06KT 10SM CLR 31/08 A3009 RMK AO2 SLP117 T03110083 TSNO

10-Day Weather Forecast

×

Almanac

Astronomy

Sep. 02, 2015 Rise Set
Actual Time
Civil Twilight
Nautical Twilight
Astronomical Twilight
Moon
Length of Visible Light
Length of Day
Tomorrow will be .
, % of the Moon is Illuminated

Today's Extremes

State Highs State Lows

Community

WunderPhotos

Upload Photos

1,851,799 photos uploaded!

WunderBlogs® & News

Nearby

Air Quality

  Air Quality AQ Index Pollutant
Not available.

Snow Depth

Station Depth Elevation

Earthquake Activity

City Distance Mag. Time & Date
Minimum magnitude displayed is 2.5.

Coastal Water Temperatures

Place Temperature

Stations

Nearby Weather Stations

Station Location Temp. Windchill Dew Point Humidity Wind Precip. Elev Updated Type